sensor_id;sensor_type;location;lat;lon;timestamp;temperature;humidity
67769;DHT22;54569;52.018;5.584;2023-11-21T00:01:18;9.10;99.90
67769;DHT22;54569;52.018;5.584;2023-11-21T00:03:43;9.10;99.90
67769;DHT22;54569;52.018;5.584;2023-11-21T00:06:09;9.10;99.90
67769;DHT22;54569;52.018;5.584;2023-11-21T00:08:36;9.00;99.90
67769;DHT22;54569;52.018;5.584;2023-11-21T00:11:01;9.00;99.90
67769;DHT22;54569;52.018;5.584;2023-11-21T00:13:31;9.00;99.90
67769;DHT22;54569;52.018;5.584;2023-11-21T00:15:57;9.00;99.90
67769;DHT22;54569;52.018;5.584;2023-11-21T00:18:22;9.00;99.90
67769;DHT22;54569;52.018;5.584;2023-11-21T00:20:48;8.90;99.90
67769;DHT22;54569;52.018;5.584;2023-11-21T00:23:14;8.90;99.90
67769;DHT22;54569;52.018;5.584;2023-11-21T00:25:39;8.90;99.90
67769;DHT22;54569;52.018;5.584;2023-11-21T00:28:05;8.90;99.90
67769;DHT22;54569;52.018;5.584;2023-11-21T00:30:31;8.80;99.90
67769;DHT22;54569;52.018;5.584;2023-11-21T00:32:57;8.80;99.90
67769;DHT22;54569;52.018;5.584;2023-11-21T00:35:22;8.80;99.90
67769;DHT22;54569;52.018;5.584;2023-11-21T00:37:48;8.70;99.90
67769;DHT22;54569;52.018;5.584;2023-11-21T00:40:15;8.70;99.90
67769;DHT22;54569;52.018;5.584;2023-11-21T00:42:41;8.60;99.90
67769;DHT22;54569;52.018;5.584;2023-11-21T00:45:07;8.60;99.90
67769;DHT22;54569;52.018;5.584;2023-11-21T00:47:33;8.50;99.90
67769;DHT22;54569;52.018;5.584;2023-11-21T00:50:00;8.50;99.90
67769;DHT22;54569;52.018;5.584;2023-11-21T00:52:25;8.50;99.90
67769;DHT22;54569;52.018;5.584;2023-11-21T00:54:51;8.40;99.90
67769;DHT22;54569;52.018;5.584;2023-11-21T00:57:17;8.40;99.90
67769;DHT22;54569;52.018;5.584;2023-11-21T00:59:42;8.40;99.90
67769;DHT22;54569;52.018;5.584;2023-11-21T01:02:08;8.30;99.90
67769;DHT22;54569;52.018;5.584;2023-11-21T01:04:36;8.30;99.90
67769;DHT22;54569;52.018;5.584;2023-11-21T01:07:02;8.20;99.90
67769;DHT22;54569;52.018;5.584;2023-11-21T01:09:27;8.20;99.90
67769;DHT22;54569;52.018;5.584;2023-11-21T01:11:53;8.20;99.90
67769;DHT22;54569;52.018;5.584;2023-11-21T01:14:19;8.20;99.90
67769;DHT22;54569;52.018;5.584;2023-11-21T01:16:45;8.20;99.90
67769;DHT22;54569;52.018;5.584;2023-11-21T01:19:11;8.20;99.90
67769;DHT22;54569;52.018;5.584;2023-11-21T01:21:36;8.20;99.90
67769;DHT22;54569;52.018;5.584;2023-11-21T01:24:03;8.20;99.90
67769;DHT22;54569;52.018;5.584;2023-11-21T01:26:29;8.20;99.90
67769;DHT22;54569;52.018;5.584;2023-11-21T01:28:54;8.20;99.90
67769;DHT22;54569;52.018;5.584;2023-11-21T01:31:20;8.20;99.90
67769;DHT22;54569;52.018;5.584;2023-11-21T01:33:46;8.20;99.90
67769;DHT22;54569;52.018;5.584;2023-11-21T01:36:12;8.20;99.90
67769;DHT22;54569;52.018;5.584;2023-11-21T01:38:37;8.20;99.90
67769;DHT22;54569;52.018;5.584;2023-11-21T01:41:04;8.10;99.90
67769;DHT22;54569;52.018;5.584;2023-11-21T01:43:30;8.10;99.90
67769;DHT22;54569;52.018;5.584;2023-11-21T01:45:57;8.10;99.90
67769;DHT22;54569;52.018;5.584;2023-11-21T01:48:24;8.10;99.90
67769;DHT22;54569;52.018;5.584;2023-11-21T01:50:50;8.10;99.90
67769;DHT22;54569;52.018;5.584;2023-11-21T01:53:16;8.10;99.90
67769;DHT22;54569;52.018;5.584;2023-11-21T01:55:45;8.00;99.90
67769;DHT22;54569;52.018;5.584;2023-11-21T01:58:11;8.00;99.90
67769;DHT22;54569;52.018;5.584;2023-11-21T02:00:38;7.90;99.90
67769;DHT22;54569;52.018;5.584;2023-11-21T02:03:04;7.90;99.90
67769;DHT22;54569;52.018;5.584;2023-11-21T02:05:30;7.90;99.90
67769;DHT22;54569;52.018;5.584;2023-11-21T02:07:57;7.80;99.90
67769;DHT22;54569;52.018;5.584;2023-11-21T02:10:23;7.90;99.90
67769;DHT22;54569;52.018;5.584;2023-11-21T02:12:49;7.90;99.90
67769;DHT22;54569;52.018;5.584;2023-11-21T02:15:18;7.90;99.90
67769;DHT22;54569;52.018;5.584;2023-11-21T02:17:47;7.90;99.90
67769;DHT22;54569;52.018;5.584;2023-11-21T02:20:17;7.90;99.90
67769;DHT22;54569;52.018;5.584;2023-11-21T02:22:54;7.90;99.90
67769;DHT22;54569;52.018;5.584;2023-11-21T02:25:27;7.90;99.90
67769;DHT22;54569;52.018;5.584;2023-11-21T02:27:58;7.90;99.90
67769;DHT22;54569;52.018;5.584;2023-11-21T02:30:24;7.90;99.90
67769;DHT22;54569;52.018;5.584;2023-11-21T02:33:09;7.90;99.90
67769;DHT22;54569;52.018;5.584;2023-11-21T02:35:34;7.90;99.90
67769;DHT22;54569;52.018;5.584;2023-11-21T02:38:00;7.90;99.90
67769;DHT22;54569;52.018;5.584;2023-11-21T02:40:27;8.00;99.90
67769;DHT22;54569;52.018;5.584;2023-11-21T02:42:52;8.00;99.90
67769;DHT22;54569;52.018;5.584;2023-11-21T02:45:19;8.10;99.90
67769;DHT22;54569;52.018;5.584;2023-11-21T02:47:46;8.10;99.90
67769;DHT22;54569;52.018;5.584;2023-11-21T02:50:13;8.20;99.90
67769;DHT22;54569;52.018;5.584;2023-11-21T02:52:39;8.20;99.90
67769;DHT22;54569;52.018;5.584;2023-11-21T02:55:06;8.20;99.90
67769;DHT22;54569;52.018;5.584;2023-11-21T02:57:33;8.20;99.90
67769;DHT22;54569;52.018;5.584;2023-11-21T02:59:59;8.20;99.90
67769;DHT22;54569;52.018;5.584;2023-11-21T03:02:25;8.30;99.90
67769;DHT22;54569;52.018;5.584;2023-11-21T03:04:51;8.30;99.90
67769;DHT22;54569;52.018;5.584;2023-11-21T03:07:18;8.30;99.90
67769;DHT22;54569;52.018;5.584;2023-11-21T03:09:45;8.30;99.90
67769;DHT22;54569;52.018;5.584;2023-11-21T03:12:11;8.40;99.90
67769;DHT22;54569;52.018;5.584;2023-11-21T03:14:38;8.40;99.90
67769;DHT22;54569;52.018;5.584;2023-11-21T03:17:04;8.50;99.90
67769;DHT22;54569;52.018;5.584;2023-11-21T03:19:30;8.50;99.90
67769;DHT22;54569;52.018;5.584;2023-11-21T03:21:56;8.50;99.90
67769;DHT22;54569;52.018;5.584;2023-11-21T03:24:22;8.50;99.90
67769;DHT22;54569;52.018;5.584;2023-11-21T03:26:49;8.60;99.90
67769;DHT22;54569;52.018;5.584;2023-11-21T03:29:17;8.60;99.90
67769;DHT22;54569;52.018;5.584;2023-11-21T03:31:42;8.70;99.90
67769;DHT22;54569;52.018;5.584;2023-11-21T03:34:23;8.70;99.90
67769;DHT22;54569;52.018;5.584;2023-11-21T03:36:49;8.70;99.90
67769;DHT22;54569;52.018;5.584;2023-11-21T03:39:15;8.70;99.90
67769;DHT22;54569;52.018;5.584;2023-11-21T03:41:40;8.80;99.90
67769;DHT22;54569;52.018;5.584;2023-11-21T03:44:06;8.80;99.90
67769;DHT22;54569;52.018;5.584;2023-11-21T03:46:32;8.80;99.90
67769;DHT22;54569;52.018;5.584;2023-11-21T03:48:57;8.70;99.90
67769;DHT22;54569;52.018;5.584;2023-11-21T03:51:23;8.70;99.90
67769;DHT22;54569;52.018;5.584;2023-11-21T03:53:48;8.70;99.90
67769;DHT22;54569;52.018;5.584;2023-11-21T03:56:14;8.70;99.90
67769;DHT22;54569;52.018;5.584;2023-11-21T03:58:40;8.70;99.90
67769;DHT22;54569;52.018;5.584;2023-11-21T04:01:06;8.70;99.90
67769;DHT22;54569;52.018;5.584;2023-11-21T04:03:31;8.70;99.90
67769;DHT22;54569;52.018;5.584;2023-11-21T04:05:57;8.80;99.90
67769;DHT22;54569;52.018;5.584;2023-11-21T04:08:23;8.80;99.90
67769;DHT22;54569;52.018;5.584;2023-11-21T04:10:48;8.80;99.90
67769;DHT22;54569;52.018;5.584;2023-11-21T04:13:14;8.80;99.90
67769;DHT22;54569;52.018;5.584;2023-11-21T04:15:39;8.80;99.90
67769;DHT22;54569;52.018;5.584;2023-11-21T04:18:05;8.90;99.90
67769;DHT22;54569;52.018;5.584;2023-11-21T04:20:31;8.90;99.90
67769;DHT22;54569;52.018;5.584;2023-11-21T04:22:57;8.90;99.90
67769;DHT22;54569;52.018;5.584;2023-11-21T04:25:23;9.00;99.90
67769;DHT22;54569;52.018;5.584;2023-11-21T04:27:49;9.00;99.90
67769;DHT22;54569;52.018;5.584;2023-11-21T04:30:15;9.00;99.90
67769;DHT22;54569;52.018;5.584;2023-11-21T04:32:41;9.00;99.90
67769;DHT22;54569;52.018;5.584;2023-11-21T04:35:07;9.00;99.90
67769;DHT22;54569;52.018;5.584;2023-11-21T04:37:35;9.00;99.90
67769;DHT22;54569;52.018;5.584;2023-11-21T04:40:02;9.00;99.90
67769;DHT22;54569;52.018;5.584;2023-11-21T04:42:33;9.00;99.90
67769;DHT22;54569;52.018;5.584;2023-11-21T04:44:59;9.00;99.90
67769;DHT22;54569;52.018;5.584;2023-11-21T04:47:25;9.00;99.90
67769;DHT22;54569;52.018;5.584;2023-11-21T04:49:50;9.00;99.90
67769;DHT22;54569;52.018;5.584;2023-11-21T04:52:17;9.00;99.90
67769;DHT22;54569;52.018;5.584;2023-11-21T04:54:43;9.00;99.90
67769;DHT22;54569;52.018;5.584;2023-11-21T04:57:08;9.00;99.90
67769;DHT22;54569;52.018;5.584;2023-11-21T04:59:34;9.10;99.90
67769;DHT22;54569;52.018;5.584;2023-11-21T05:02:00;9.00;99.90
67769;DHT22;54569;52.018;5.584;2023-11-21T05:04:26;9.10;99.90
67769;DHT22;54569;52.018;5.584;2023-11-21T05:06:52;9.10;99.90
67769;DHT22;54569;52.018;5.584;2023-11-21T05:09:18;9.10;99.90
67769;DHT22;54569;52.018;5.584;2023-11-21T05:11:43;9.10;99.90
67769;DHT22;54569;52.018;5.584;2023-11-21T05:14:09;9.10;99.90
67769;DHT22;54569;52.018;5.584;2023-11-21T05:16:35;9.10;99.90
67769;DHT22;54569;52.018;5.584;2023-11-21T05:19:01;9.10;99.90
67769;DHT22;54569;52.018;5.584;2023-11-21T05:21:27;9.20;99.90
67769;DHT22;54569;52.018;5.584;2023-11-21T05:23:53;9.20;99.90
67769;DHT22;54569;52.018;5.584;2023-11-21T05:26:19;9.20;99.90
67769;DHT22;54569;52.018;5.584;2023-11-21T05:28:44;9.20;99.90
67769;DHT22;54569;52.018;5.584;2023-11-21T05:31:10;9.30;99.90
67769;DHT22;54569;52.018;5.584;2023-11-21T05:33:36;9.30;99.90
67769;DHT22;54569;52.018;5.584;2023-11-21T05:36:02;9.30;99.90
67769;DHT22;54569;52.018;5.584;2023-11-21T05:38:28;9.40;99.90
67769;DHT22;54569;52.018;5.584;2023-11-21T05:40:54;9.40;99.90
67769;DHT22;54569;52.018;5.584;2023-11-21T05:43:20;9.40;99.90
67769;DHT22;54569;52.018;5.584;2023-11-21T05:45:45;9.40;99.90
67769;DHT22;54569;52.018;5.584;2023-11-21T05:48:11;9.40;99.90
67769;DHT22;54569;52.018;5.584;2023-11-21T05:50:37;9.50;99.90
67769;DHT22;54569;52.018;5.584;2023-11-21T05:53:03;9.50;99.90
67769;DHT22;54569;52.018;5.584;2023-11-21T05:55:29;9.50;99.90
67769;DHT22;54569;52.018;5.584;2023-11-21T05:57:55;9.50;99.90
67769;DHT22;54569;52.018;5.584;2023-11-21T06:00:21;9.50;99.90
67769;DHT22;54569;52.018;5.584;2023-11-21T06:02:52;9.60;99.90
67769;DHT22;54569;52.018;5.584;2023-11-21T06:05:20;9.60;99.90
67769;DHT22;54569;52.018;5.584;2023-11-21T06:07:46;9.60;99.90
67769;DHT22;54569;52.018;5.584;2023-11-21T06:10:12;9.60;99.90
67769;DHT22;54569;52.018;5.584;2023-11-21T06:12:40;9.60;99.90
67769;DHT22;54569;52.018;5.584;2023-11-21T06:15:09;9.70;99.90
67769;DHT22;54569;52.018;5.584;2023-11-21T06:17:35;9.70;99.90
67769;DHT22;54569;52.018;5.584;2023-11-21T06:20:06;9.70;99.90
67769;DHT22;54569;52.018;5.584;2023-11-21T06:22:36;9.70;99.90
67769;DHT22;54569;52.018;5.584;2023-11-21T06:25:02;9.70;99.90
67769;DHT22;54569;52.018;5.584;2023-11-21T06:27:30;9.70;99.90
67769;DHT22;54569;52.018;5.584;2023-11-21T06:29:56;9.70;99.90
67769;DHT22;54569;52.018;5.584;2023-11-21T06:32:22;9.80;99.90
67769;DHT22;54569;52.018;5.584;2023-11-21T06:34:48;9.80;99.90
67769;DHT22;54569;52.018;5.584;2023-11-21T06:37:15;9.70;99.90
67769;DHT22;54569;52.018;5.584;2023-11-21T06:39:40;9.80;99.90
67769;DHT22;54569;52.018;5.584;2023-11-21T06:42:07;9.80;99.90
67769;DHT22;54569;52.018;5.584;2023-11-21T06:44:33;9.80;99.90
67769;DHT22;54569;52.018;5.584;2023-11-21T06:46:59;9.80;99.90
67769;DHT22;54569;52.018;5.584;2023-11-21T06:49:24;9.80;99.90
67769;DHT22;54569;52.018;5.584;2023-11-21T06:51:51;9.80;99.90
67769;DHT22;54569;52.018;5.584;2023-11-21T06:54:18;9.80;99.90
67769;DHT22;54569;52.018;5.584;2023-11-21T06:56:43;9.80;99.90
67769;DHT22;54569;52.018;5.584;2023-11-21T06:59:09;9.80;99.90
67769;DHT22;54569;52.018;5.584;2023-11-21T07:01:36;9.80;99.90
67769;DHT22;54569;52.018;5.584;2023-11-21T07:04:05;9.80;99.90
67769;DHT22;54569;52.018;5.584;2023-11-21T07:06:31;9.80;99.90
67769;DHT22;54569;52.018;5.584;2023-11-21T07:08:57;9.80;99.90
67769;DHT22;54569;52.018;5.584;2023-11-21T07:11:24;9.90;99.90
67769;DHT22;54569;52.018;5.584;2023-11-21T07:13:50;9.90;99.90
67769;DHT22;54569;52.018;5.584;2023-11-21T07:16:16;9.90;99.90
67769;DHT22;54569;52.018;5.584;2023-11-21T07:18:42;9.90;99.90
67769;DHT22;54569;52.018;5.584;2023-11-21T07:21:08;9.90;99.90
67769;DHT22;54569;52.018;5.584;2023-11-21T07:23:34;9.90;99.90
67769;DHT22;54569;52.018;5.584;2023-11-21T07:26:00;9.90;99.90
67769;DHT22;54569;52.018;5.584;2023-11-21T07:28:25;9.90;99.90
67769;DHT22;54569;52.018;5.584;2023-11-21T07:30:51;10.00;99.90
67769;DHT22;54569;52.018;5.584;2023-11-21T07:33:18;10.00;99.90
67769;DHT22;54569;52.018;5.584;2023-11-21T07:35:43;10.00;99.90
67769;DHT22;54569;52.018;5.584;2023-11-21T07:38:09;10.00;99.90
67769;DHT22;54569;52.018;5.584;2023-11-21T07:40:35;10.00;99.90
67769;DHT22;54569;52.018;5.584;2023-11-21T07:43:01;10.00;99.90
67769;DHT22;54569;52.018;5.584;2023-11-21T07:45:27;10.10;99.90
67769;DHT22;54569;52.018;5.584;2023-11-21T07:47:54;10.10;99.90
67769;DHT22;54569;52.018;5.584;2023-11-21T07:50:21;10.10;99.90
67769;DHT22;54569;52.018;5.584;2023-11-21T07:52:48;10.10;99.90
67769;DHT22;54569;52.018;5.584;2023-11-21T07:55:15;10.10;99.90
67769;DHT22;54569;52.018;5.584;2023-11-21T07:57:41;10.10;99.90
67769;DHT22;54569;52.018;5.584;2023-11-21T08:00:07;10.20;99.90
67769;DHT22;54569;52.018;5.584;2023-11-21T08:02:40;10.20;99.90
67769;DHT22;54569;52.018;5.584;2023-11-21T08:05:12;10.20;99.90
67769;DHT22;54569;52.018;5.584;2023-11-21T08:07:38;10.20;99.90
67769;DHT22;54569;52.018;5.584;2023-11-21T08:10:04;10.20;99.90
67769;DHT22;54569;52.018;5.584;2023-11-21T08:12:32;10.20;99.90
67769;DHT22;54569;52.018;5.584;2023-11-21T08:14:59;10.30;99.90
67769;DHT22;54569;52.018;5.584;2023-11-21T08:17:24;10.30;99.90
67769;DHT22;54569;52.018;5.584;2023-11-21T08:19:50;10.30;99.90
67769;DHT22;54569;52.018;5.584;2023-11-21T08:22:16;10.30;99.90
67769;DHT22;54569;52.018;5.584;2023-11-21T08:24:43;10.40;99.90
67769;DHT22;54569;52.018;5.584;2023-11-21T08:27:09;10.50;99.90
67769;DHT22;54569;52.018;5.584;2023-11-21T08:29:35;10.60;99.90
67769;DHT22;54569;52.018;5.584;2023-11-21T08:32:02;10.60;99.90
67769;DHT22;54569;52.018;5.584;2023-11-21T08:34:28;10.70;99.90
67769;DHT22;54569;52.018;5.584;2023-11-21T08:36:54;10.70;99.90
67769;DHT22;54569;52.018;5.584;2023-11-21T08:39:21;10.80;99.90
67769;DHT22;54569;52.018;5.584;2023-11-21T08:41:50;10.80;99.90
67769;DHT22;54569;52.018;5.584;2023-11-21T08:44:16;10.80;99.90
67769;DHT22;54569;52.018;5.584;2023-11-21T08:46:44;10.80;99.90
67769;DHT22;54569;52.018;5.584;2023-11-21T08:49:11;10.90;99.90
67769;DHT22;54569;52.018;5.584;2023-11-21T08:51:38;10.80;99.90
67769;DHT22;54569;52.018;5.584;2023-11-21T08:54:04;10.90;99.90
67769;DHT22;54569;52.018;5.584;2023-11-21T08:56:33;10.80;99.90
67769;DHT22;54569;52.018;5.584;2023-11-21T08:58:59;10.80;99.90
67769;DHT22;54569;52.018;5.584;2023-11-21T09:01:28;10.80;99.90
67769;DHT22;54569;52.018;5.584;2023-11-21T09:03:53;10.80;99.90
67769;DHT22;54569;52.018;5.584;2023-11-21T09:06:19;10.80;99.90
67769;DHT22;54569;52.018;5.584;2023-11-21T09:08:45;10.80;99.90
67769;DHT22;54569;52.018;5.584;2023-11-21T09:11:10;10.80;99.90
67769;DHT22;54569;52.018;5.584;2023-11-21T09:13:36;10.80;99.90
67769;DHT22;54569;52.018;5.584;2023-11-21T09:16:02;10.80;99.90
67769;DHT22;54569;52.018;5.584;2023-11-21T09:18:28;10.80;99.90
67769;DHT22;54569;52.018;5.584;2023-11-21T09:20:53;10.80;99.90
67769;DHT22;54569;52.018;5.584;2023-11-21T09:23:19;10.80;99.90
67769;DHT22;54569;52.018;5.584;2023-11-21T09:25:45;10.80;99.90
67769;DHT22;54569;52.018;5.584;2023-11-21T09:28:12;10.90;99.90
67769;DHT22;54569;52.018;5.584;2023-11-21T09:30:38;10.90;99.90
67769;DHT22;54569;52.018;5.584;2023-11-21T09:33:04;10.90;99.90
67769;DHT22;54569;52.018;5.584;2023-11-21T09:35:37;11.00;99.90
67769;DHT22;54569;52.018;5.584;2023-11-21T09:38:03;11.10;99.90
67769;DHT22;54569;52.018;5.584;2023-11-21T09:40:35;11.10;99.90
67769;DHT22;54569;52.018;5.584;2023-11-21T09:43:05;11.20;99.90
67769;DHT22;54569;52.018;5.584;2023-11-21T09:45:35;11.30;99.90
67769;DHT22;54569;52.018;5.584;2023-11-21T09:48:01;11.40;99.90
67769;DHT22;54569;52.018;5.584;2023-11-21T09:50:27;11.40;99.90
67769;DHT22;54569;52.018;5.584;2023-11-21T09:52:57;11.50;99.90
67769;DHT22;54569;52.018;5.584;2023-11-21T09:55:26;11.50;99.90
67769;DHT22;54569;52.018;5.584;2023-11-21T09:57:54;11.50;99.90
67769;DHT22;54569;52.018;5.584;2023-11-21T10:00:22;11.50;99.90
67769;DHT22;54569;52.018;5.584;2023-11-21T10:02:49;11.50;99.90
67769;DHT22;54569;52.018;5.584;2023-11-21T10:05:15;11.50;99.90
67769;DHT22;54569;52.018;5.584;2023-11-21T10:07:43;11.40;99.90
67769;DHT22;54569;52.018;5.584;2023-11-21T10:10:10;11.40;99.90
67769;DHT22;54569;52.018;5.584;2023-11-21T10:12:36;11.40;99.90
67769;DHT22;54569;52.018;5.584;2023-11-21T10:15:07;11.40;99.90
67769;DHT22;54569;52.018;5.584;2023-11-21T10:17:36;11.40;99.90
67769;DHT22;54569;52.018;5.584;2023-11-21T10:20:11;11.30;99.90
67769;DHT22;54569;52.018;5.584;2023-11-21T10:22:40;11.30;99.90
67769;DHT22;54569;52.018;5.584;2023-11-21T10:25:10;11.30;99.90
67769;DHT22;54569;52.018;5.584;2023-11-21T10:27:36;11.20;99.90
67769;DHT22;54569;52.018;5.584;2023-11-21T10:30:05;11.20;99.90
67769;DHT22;54569;52.018;5.584;2023-11-21T10:32:30;11.20;99.90
67769;DHT22;54569;52.018;5.584;2023-11-21T10:34:59;11.10;99.90
67769;DHT22;54569;52.018;5.584;2023-11-21T10:37:38;11.10;99.90
67769;DHT22;54569;52.018;5.584;2023-11-21T10:40:10;11.00;99.90
67769;DHT22;54569;52.018;5.584;2023-11-21T10:42:39;11.00;99.90
67769;DHT22;54569;52.018;5.584;2023-11-21T10:45:06;11.00;99.90
67769;DHT22;54569;52.018;5.584;2023-11-21T10:47:43;11.10;99.90
67769;DHT22;54569;52.018;5.584;2023-11-21T10:50:09;11.10;99.90
67769;DHT22;54569;52.018;5.584;2023-11-21T10:52:42;11.20;99.90
67769;DHT22;54569;52.018;5.584;2023-11-21T10:55:19;11.20;99.90
67769;DHT22;54569;52.018;5.584;2023-11-21T10:57:52;11.30;99.90
67769;DHT22;54569;52.018;5.584;2023-11-21T11:00:19;11.30;99.90
67769;DHT22;54569;52.018;5.584;2023-11-21T11:02:51;11.40;99.90
67769;DHT22;54569;52.018;5.584;2023-11-21T11:05:20;11.40;99.90
67769;DHT22;54569;52.018;5.584;2023-11-21T11:07:50;11.40;99.90
67769;DHT22;54569;52.018;5.584;2023-11-21T11:10:21;11.40;99.90
67769;DHT22;54569;52.018;5.584;2023-11-21T11:12:48;11.40;99.90
67769;DHT22;54569;52.018;5.584;2023-11-21T11:15:16;11.30;99.90
67769;DHT22;54569;52.018;5.584;2023-11-21T11:17:42;11.30;99.90
67769;DHT22;54569;52.018;5.584;2023-11-21T11:20:12;11.30;99.90
67769;DHT22;54569;52.018;5.584;2023-11-21T11:22:47;11.20;99.90
67769;DHT22;54569;52.018;5.584;2023-11-21T11:28:07;11.20;99.90
67769;DHT22;54569;52.018;5.584;2023-11-21T11:31:04;11.10;99.90
67769;DHT22;54569;52.018;5.584;2023-11-21T11:33:57;11.10;99.90
67769;DHT22;54569;52.018;5.584;2023-11-21T11:36:35;11.10;99.90
67769;DHT22;54569;52.018;5.584;2023-11-21T11:39:03;11.10;99.90
67769;DHT22;54569;52.018;5.584;2023-11-21T11:41:31;11.00;99.90
67769;DHT22;54569;52.018;5.584;2023-11-21T11:44:03;11.00;99.90
67769;DHT22;54569;52.018;5.584;2023-11-21T11:46:43;11.10;99.90
67769;DHT22;54569;52.018;5.584;2023-11-21T11:49:29;11.10;99.90
67769;DHT22;54569;52.018;5.584;2023-11-21T11:54:59;11.10;99.90
67769;DHT22;54569;52.018;5.584;2023-11-21T11:57:25;11.00;99.90
67769;DHT22;54569;52.018;5.584;2023-11-21T12:00:14;11.00;99.90
67769;DHT22;54569;52.018;5.584;2023-11-21T12:02:49;11.10;99.90
67769;DHT22;54569;52.018;5.584;2023-11-21T12:05:19;11.10;99.90
67769;DHT22;54569;52.018;5.584;2023-11-21T12:10:18;11.20;99.90
67769;DHT22;54569;52.018;5.584;2023-11-21T12:12:49;11.20;99.90
67769;DHT22;54569;52.018;5.584;2023-11-21T12:15:15;11.30;99.90
67769;DHT22;54569;52.018;5.584;2023-11-21T12:17:43;11.30;99.90
67769;DHT22;54569;52.018;5.584;2023-11-21T12:20:10;11.30;99.90
67769;DHT22;54569;52.018;5.584;2023-11-21T12:22:45;11.30;99.90
67769;DHT22;54569;52.018;5.584;2023-11-21T12:25:25;11.30;99.90
67769;DHT22;54569;52.018;5.584;2023-11-21T12:27:54;11.40;99.90
67769;DHT22;54569;52.018;5.584;2023-11-21T12:30:22;11.40;99.90
67769;DHT22;54569;52.018;5.584;2023-11-21T12:32:52;11.40;99.90
67769;DHT22;54569;52.018;5.584;2023-11-21T12:35:20;11.40;99.90
67769;DHT22;54569;52.018;5.584;2023-11-21T12:37:47;11.40;99.90
67769;DHT22;54569;52.018;5.584;2023-11-21T12:40:14;11.40;99.90
67769;DHT22;54569;52.018;5.584;2023-11-21T12:42:44;11.40;99.90
67769;DHT22;54569;52.018;5.584;2023-11-21T12:47:48;11.30;99.90
67769;DHT22;54569;52.018;5.584;2023-11-21T12:50:20;11.30;99.90
67769;DHT22;54569;52.018;5.584;2023-11-21T12:52:50;11.30;99.90
67769;DHT22;54569;52.018;5.584;2023-11-21T12:55:20;11.20;99.90
67769;DHT22;54569;52.018;5.584;2023-11-21T12:57:51;11.20;99.90
67769;DHT22;54569;52.018;5.584;2023-11-21T13:00:20;11.20;99.90
67769;DHT22;54569;52.018;5.584;2023-11-21T13:02:56;11.20;99.90
67769;DHT22;54569;52.018;5.584;2023-11-21T13:05:28;11.20;99.90
67769;DHT22;54569;52.018;5.584;2023-11-21T13:07:56;11.20;99.90
67769;DHT22;54569;52.018;5.584;2023-11-21T13:10:27;11.10;99.90
67769;DHT22;54569;52.018;5.584;2023-11-21T13:12:57;11.10;99.90
67769;DHT22;54569;52.018;5.584;2023-11-21T13:15:32;11.10;99.90
67769;DHT22;54569;52.018;5.584;2023-11-21T13:18:02;11.10;99.90
67769;DHT22;54569;52.018;5.584;2023-11-21T13:20:28;11.20;99.90
67769;DHT22;54569;52.018;5.584;2023-11-21T13:22:58;11.30;99.90
67769;DHT22;54569;52.018;5.584;2023-11-21T13:25:30;11.30;99.90
67769;DHT22;54569;52.018;5.584;2023-11-21T13:27:57;11.40;99.90
67769;DHT22;54569;52.018;5.584;2023-11-21T13:30:27;11.30;99.90
67769;DHT22;54569;52.018;5.584;2023-11-21T13:33:00;11.30;99.90
67769;DHT22;54569;52.018;5.584;2023-11-21T13:35:32;11.30;99.90
67769;DHT22;54569;52.018;5.584;2023-11-21T13:38:08;11.30;99.90
67769;DHT22;54569;52.018;5.584;2023-11-21T13:40:35;11.30;99.90
67769;DHT22;54569;52.018;5.584;2023-11-21T13:43:13;11.30;99.90
67769;DHT22;54569;52.018;5.584;2023-11-21T13:45:40;11.30;99.90
67769;DHT22;54569;52.018;5.584;2023-11-21T13:48:06;11.30;99.90
67769;DHT22;54569;52.018;5.584;2023-11-21T13:50:42;11.40;99.90
67769;DHT22;54569;52.018;5.584;2023-11-21T13:53:14;11.40;99.90
67769;DHT22;54569;52.018;5.584;2023-11-21T13:55:48;11.30;99.90
67769;DHT22;54569;52.018;5.584;2023-11-21T13:58:15;11.30;99.90
67769;DHT22;54569;52.018;5.584;2023-11-21T14:00:48;11.30;99.90
67769;DHT22;54569;52.018;5.584;2023-11-21T14:03:21;11.30;99.90
67769;DHT22;54569;52.018;5.584;2023-11-21T14:05:50;11.30;99.90
67769;DHT22;54569;52.018;5.584;2023-11-21T14:08:21;11.30;99.90
67769;DHT22;54569;52.018;5.584;2023-11-21T14:10:48;11.20;99.90
67769;DHT22;54569;52.018;5.584;2023-11-21T14:13:21;11.20;99.90
67769;DHT22;54569;52.018;5.584;2023-11-21T14:15:49;11.20;99.90
67769;DHT22;54569;52.018;5.584;2023-11-21T14:18:17;11.20;99.90
67769;DHT22;54569;52.018;5.584;2023-11-21T14:20:51;11.10;99.90
67769;DHT22;54569;52.018;5.584;2023-11-21T14:23:17;11.00;99.90
67769;DHT22;54569;52.018;5.584;2023-11-21T14:25:43;10.90;99.90
67769;DHT22;54569;52.018;5.584;2023-11-21T14:28:09;10.90;99.90
67769;DHT22;54569;52.018;5.584;2023-11-21T14:30:38;10.80;99.90
67769;DHT22;54569;52.018;5.584;2023-11-21T14:33:05;10.80;99.90
67769;DHT22;54569;52.018;5.584;2023-11-21T14:35:31;10.70;99.90
67769;DHT22;54569;52.018;5.584;2023-11-21T14:37:58;10.70;99.90
67769;DHT22;54569;52.018;5.584;2023-11-21T14:40:26;10.70;99.90
67769;DHT22;54569;52.018;5.584;2023-11-21T14:42:54;10.70;99.90
67769;DHT22;54569;52.018;5.584;2023-11-21T14:45:22;10.70;99.90
67769;DHT22;54569;52.018;5.584;2023-11-21T14:47:51;10.60;99.90
67769;DHT22;54569;52.018;5.584;2023-11-21T14:50:43;10.60;99.90
67769;DHT22;54569;52.018;5.584;2023-11-21T14:53:10;10.50;99.90
67769;DHT22;54569;52.018;5.584;2023-11-21T14:55:38;10.50;99.90
67769;DHT22;54569;52.018;5.584;2023-11-21T14:58:19;10.50;99.90
67769;DHT22;54569;52.018;5.584;2023-11-21T15:01:04;10.40;99.90
67769;DHT22;54569;52.018;5.584;2023-11-21T15:03:30;10.40;99.90
67769;DHT22;54569;52.018;5.584;2023-11-21T15:05:59;10.40;99.90
67769;DHT22;54569;52.018;5.584;2023-11-21T15:08:42;10.30;99.90
67769;DHT22;54569;52.018;5.584;2023-11-21T15:11:08;10.20;99.90
67769;DHT22;54569;52.018;5.584;2023-11-21T15:13:40;10.20;99.90
67769;DHT22;54569;52.018;5.584;2023-11-21T15:16:08;10.20;99.90
67769;DHT22;54569;52.018;5.584;2023-11-21T15:18:37;10.10;99.90
67769;DHT22;54569;52.018;5.584;2023-11-21T15:21:03;10.10;99.90
67769;DHT22;54569;52.018;5.584;2023-11-21T15:23:29;10.00;99.90
67769;DHT22;54569;52.018;5.584;2023-11-21T15:25:57;10.00;99.90
67769;DHT22;54569;52.018;5.584;2023-11-21T15:28:23;10.00;99.90
67769;DHT22;54569;52.018;5.584;2023-11-21T15:30:50;9.90;99.90
67769;DHT22;54569;52.018;5.584;2023-11-21T15:33:17;9.90;99.90
67769;DHT22;54569;52.018;5.584;2023-11-21T15:35:43;9.80;99.90
67769;DHT22;54569;52.018;5.584;2023-11-21T15:38:09;9.80;99.90
67769;DHT22;54569;52.018;5.584;2023-11-21T15:40:35;9.80;99.90
67769;DHT22;54569;52.018;5.584;2023-11-21T15:43:00;9.80;99.90
67769;DHT22;54569;52.018;5.584;2023-11-21T15:45:28;9.70;99.90
67769;DHT22;54569;52.018;5.584;2023-11-21T15:47:54;9.70;99.90
67769;DHT22;54569;52.018;5.584;2023-11-21T15:50:21;9.70;99.90
67769;DHT22;54569;52.018;5.584;2023-11-21T15:52:46;9.60;99.90